Time;durP1;ratioP1;P1;durP2;ratioP2;P2;SDS_P1;SDS_P2;PMS_P1;PMS_P2;Temp;Humidity;BMP_temperature;BMP_pressure;BME280_temperature;BME280_humidity;BME280_pressure;Samples;Min_cycle;Max_cycle;Signal;HPM_P1;HPM_P2
2022/01/17 00:00:36;;;;;;;75.03;31.90;;;;;;;;;;5032049;28;20663;-67
2022/01/17 00:03:02;;;;;;;82.23;37.00;;;;;;;;;;5033359;28;20181;-67
2022/01/17 00:05:29;;;;;;;92.50;38.17;;;;;;;;;;5033944;28;20175;-67
2022/01/17 00:07:55;;;;;;;81.67;36.60;;;;;;;;;;5032290;28;20183;-67
2022/01/17 00:10:21;;;;;;;79.03;35.33;;;;;;;;;;5033317;28;20210;-67
2022/01/17 00:12:50;;;;;;;82.93;34.43;;;;;;;;;;5032081;28;20186;-66
2022/01/17 00:15:22;;;;;;;72.40;34.90;;;;;;;;;;5032499;28;20632;-67
2022/01/17 00:17:53;;;;;;;77.80;36.80;;;;;;;;;;5032035;28;20305;-67
2022/01/17 00:20:26;;;;;;;82.83;34.13;;;;;;;;;;5032162;28;20221;-67
2022/01/17 00:22:52;;;;;;;82.43;37.90;;;;;;;;;;5033425;28;20167;-67
2022/01/17 00:25:18;;;;;;;75.93;35.00;;;;;;;;;;5033297;28;20175;-67
2022/01/17 00:27:44;;;;;;;81.70;37.17;;;;;;;;;;5033228;28;20551;-67
2022/01/17 00:30:10;;;;;;;87.90;36.17;;;;;;;;;;5033198;28;20226;-66
2022/01/17 00:32:38;;;;;;;87.17;38.83;;;;;;;;;;5032304;28;20222;-67
2022/01/17 00:35:04;;;;;;;77.37;37.07;;;;;;;;;;5033141;28;20595;-67
2022/01/17 00:37:30;;;;;;;83.10;36.17;;;;;;;;;;5033060;28;20605;-67
2022/01/17 00:39:56;;;;;;;86.03;36.87;;;;;;;;;;5031778;28;20218;-67
2022/01/17 00:42:22;;;;;;;90.20;37.77;;;;;;;;;;5033173;28;20179;-67
2022/01/17 00:44:48;;;;;;;96.97;37.27;;;;;;;;;;5033159;28;20179;-67
2022/01/17 00:47:15;;;;;;;87.93;38.07;;;;;;;;;;5033201;28;20250;-66
2022/01/17 00:49:41;;;;;;;88.50;37.50;;;;;;;;;;5032976;28;20218;-66
2022/01/17 00:52:07;;;;;;;78.37;35.43;;;;;;;;;;5032894;28;20203;-67
2022/01/17 00:54:33;;;;;;;88.70;39.10;;;;;;;;;;5033159;28;20527;-66
2022/01/17 00:56:59;;;;;;;94.60;39.43;;;;;;;;;;5032931;28;20178;-67
2022/01/17 00:59:25;;;;;;;89.03;39.37;;;;;;;;;;5031594;28;20190;-66
2022/01/17 01:01:51;;;;;;;98.80;40.13;;;;;;;;;;5031644;28;20183;-66
2022/01/17 01:04:17;;;;;;;88.70;36.57;;;;;;;;;;5032980;28;20261;-67
2022/01/17 01:06:43;;;;;;;109.00;38.90;;;;;;;;;;5033102;28;20184;-69
2022/01/17 01:09:09;;;;;;;78.97;37.90;;;;;;;;;;5032763;28;20187;-67
2022/01/17 01:11:35;;;;;;;100.43;41.13;;;;;;;;;;5032616;28;20211;-67
2022/01/17 01:14:01;;;;;;;103.10;43.63;;;;;;;;;;5031520;28;20241;-67
2022/01/17 01:16:33;;;;;;;100.33;42.37;;;;;;;;;;5033004;28;20203;-66
2022/01/17 01:21:45;;;;;;;103.23;42.43;;;;;;;;;;5032576;28;20222;-66
2022/01/17 01:29:55;;;;;;;104.67;44.03;;;;;;;;;;5036482;28;20217;-67
2022/01/17 01:32:25;;;;;;;111.87;44.77;;;;;;;;;;5036380;28;20702;-66
2022/01/17 01:34:55;;;;;;;119.73;46.07;;;;;;;;;;5036131;28;20592;-67
2022/01/17 01:37:20;;;;;;;111.13;45.80;;;;;;;;;;5036383;28;20553;-67
2022/01/17 01:39:49;;;;;;;116.67;46.70;;;;;;;;;;5036001;28;20198;-67
2022/01/17 01:42:18;;;;;;;114.03;44.90;;;;;;;;;;5034724;28;20186;-66
2022/01/17 01:44:44;;;;;;;112.67;44.37;;;;;;;;;;5035955;28;20172;-66
2022/01/17 01:47:11;;;;;;;111.93;44.93;;;;;;;;;;5036022;28;20175;-67
2022/01/17 01:49:37;;;;;;;116.80;49.67;;;;;;;;;;5034514;28;20675;-66
2022/01/17 01:52:03;;;;;;;125.97;49.77;;;;;;;;;;5034450;28;20203;-66
2022/01/17 01:54:29;;;;;;;123.17;46.03;;;;;;;;;;5034488;28;20233;-66
2022/01/17 01:56:55;;;;;;;116.50;47.07;;;;;;;;;;5035755;28;20654;-66
2022/01/17 01:59:22;;;;;;;121.47;47.90;;;;;;;;;;5035638;28;20179;-66
2022/01/17 02:01:48;;;;;;;114.83;45.37;;;;;;;;;;5035857;28;20627;-66
2022/01/17 02:04:15;;;;;;;118.67;47.33;;;;;;;;;;5035634;28;20189;-66
2022/01/17 02:06:41;;;;;;;118.97;47.23;;;;;;;;;;5035875;28;20171;-67
2022/01/17 02:09:07;;;;;;;123.10;46.87;;;;;;;;;;5035484;28;20183;-67
2022/01/17 02:11:34;;;;;;;105.53;41.67;;;;;;;;;;5035737;28;20217;-67
2022/01/17 02:14:00;;;;;;;111.63;46.17;;;;;;;;;;5035436;28;20174;-66
2022/01/17 02:16:26;;;;;;;114.13;47.63;;;;;;;;;;5035412;28;20179;-66
2022/01/17 02:18:52;;;;;;;123.93;49.30;;;;;;;;;;5035661;28;20705;-67
2022/01/17 02:21:31;;;;;;;115.23;45.97;;;;;;;;;;5035183;28;20211;-67
2022/01/17 02:23:57;;;;;;;115.90;46.50;;;;;;;;;;5035183;28;20159;-67
2022/01/17 02:26:23;;;;;;;126.70;46.73;;;;;;;;;;5033938;28;20221;-67
2022/01/17 02:28:50;;;;;;;109.27;45.83;;;;;;;;;;5034045;28;20262;-67
2022/01/17 02:31:16;;;;;;;110.10;46.60;;;;;;;;;;5035012;28;20298;-66
2022/01/17 02:33:43;;;;;;;125.73;46.37;;;;;;;;;;5035119;28;20533;-67
2022/01/17 02:36:09;;;;;;;96.67;40.73;;;;;;;;;;5035030;28;20646;-66
2022/01/17 02:38:38;;;;;;;101.07;44.30;;;;;;;;;;5032964;28;20224;-66
2022/01/17 02:41:04;;;;;;;118.37;46.80;;;;;;;;;;5034889;28;20254;-67
2022/01/17 02:43:31;;;;;;;99.30;42.77;;;;;;;;;;5034780;28;20183;-66
2022/01/17 02:48:25;;;;;;;108.77;44.40;;;;;;;;;;5035049;28;20179;-66
2022/01/17 02:50:51;;;;;;;99.27;43.13;;;;;;;;;;5034683;28;20207;-66
2022/01/17 02:53:17;;;;;;;97.87;43.03;;;;;;;;;;5033451;28;20649;-67
2022/01/17 02:55:49;;;;;;;107.87;43.03;;;;;;;;;;5034598;28;20175;-67
2022/01/17 02:58:16;;;;;;;103.67;42.47;;;;;;;;;;5033352;28;20627;-67
2022/01/17 03:00:42;;;;;;;92.50;41.73;;;;;;;;;;5033252;28;20207;-66
2022/01/17 03:03:13;;;;;;;96.43;42.80;;;;;;;;;;5033349;28;20182;-66
2022/01/17 03:05:39;;;;;;;103.70;43.43;;;;;;;;;;5034997;28;20238;-66
2022/01/17 03:08:05;;;;;;;95.37;40.70;;;;;;;;;;5034340;28;20179;-66
2022/01/17 03:10:40;;;;;;;106.67;42.93;;;;;;;;;;5033021;28;20203;-66
2022/01/17 03:13:17;;;;;;;97.17;42.10;;;;;;;;;;5034386;28;20192;-67
2022/01/17 03:15:43;;;;;;;95.47;42.60;;;;;;;;;;5032919;28;20175;-67
2022/01/17 03:18:09;;;;;;;101.80;44.40;;;;;;;;;;5032820;28;20183;-66
2022/01/17 03:20:37;;;;;;;99.67;43.17;;;;;;;;;;5034170;28;20218;-66
2022/01/17 03:23:03;;;;;;;105.30;44.63;;;;;;;;;;5034048;28;20172;-66
2022/01/17 03:25:29;;;;;;;91.60;42.50;;;;;;;;;;5034257;28;20225;-67
2022/01/17 03:27:55;;;;;;;104.37;43.90;;;;;;;;;;5034073;28;20183;-66
2022/01/17 03:30:22;;;;;;;95.90;42.97;;;;;;;;;;5034437;28;20195;-66
2022/01/17 03:32:48;;;;;;;96.03;43.63;;;;;;;;;;5032681;28;20202;-67
2022/01/17 03:35:14;;;;;;;101.17;43.90;;;;;;;;;;5032588;28;20179;-67
2022/01/17 03:37:40;;;;;;;82.70;39.07;;;;;;;;;;5032558;28;20178;-66
2022/01/17 03:40:07;;;;;;;96.07;41.77;;;;;;;;;;5032489;28;20257;-66
2022/01/17 03:42:33;;;;;;;96.40;42.27;;;;;;;;;;5033795;28;20262;-67
2022/01/17 03:45:00;;;;;;;87.20;41.70;;;;;;;;;;5033949;28;20270;-66
2022/01/17 03:47:26;;;;;;;96.60;41.87;;;;;;;;;;5033793;28;20605;-66
2022/01/17 03:49:52;;;;;;;84.63;37.80;;;;;;;;;;5032354;28;20230;-67
2022/01/17 03:52:18;;;;;;;92.57;38.67;;;;;;;;;;5033802;28;20213;-67
2022/01/17 03:54:44;;;;;;;91.17;39.20;;;;;;;;;;5033667;28;20202;-67
2022/01/17 03:57:10;;;;;;;82.60;37.77;;;;;;;;;;5033543;28;20179;-66
2022/01/17 03:59:36;;;;;;;94.23;40.30;;;;;;;;;;5033378;28;20199;-66
2022/01/17 04:02:03;;;;;;;89.73;40.13;;;;;;;;;;5033488;28;20183;-66
2022/01/17 04:04:29;;;;;;;90.23;38.43;;;;;;;;;;5033537;28;20179;-67
2022/01/17 04:06:55;;;;;;;87.20;39.07;;;;;;;;;;5033487;28;20186;-66
2022/01/17 04:09:21;;;;;;;89.83;39.60;;;;;;;;;;5033824;28;20179;-66
2022/01/17 04:11:47;;;;;;;84.03;38.57;;;;;;;;;;5032107;28;20687;-66
2022/01/17 04:14:13;;;;;;;74.97;35.43;;;;;;;;;;5033524;28;20598;-67
2022/01/17 04:16:39;;;;;;;80.40;35.63;;;;;;;;;;5032081;28;20237;-66
2022/01/17 04:19:05;;;;;;;72.97;34.20;;;;;;;;;;5032073;28;20179;-67
2022/01/17 04:21:34;;;;;;;78.87;34.17;;;;;;;;;;5033209;28;20217;-67
2022/01/17 04:24:00;;;;;;;52.20;26.40;;;;;;;;;;5069594;23;20226;-64
2022/01/17 04:26:26;;;;;;;66.80;31.07;;;;;;;;;;5074294;28;20246;-63
2022/01/17 04:28:53;;;;;;;67.03;30.50;;;;;;;;;;5059021;28;20182;-63
2022/01/17 04:31:18;;;;;;;69.53;29.73;;;;;;;;;;5058866;28;20262;-65
2022/01/17 04:33:44;;;;;;;56.57;29.43;;;;;;;;;;5059435;28;20230;-63
2022/01/17 04:36:10;;;;;;;53.83;27.27;;;;;;;;;;5059576;28;20181;-63
2022/01/17 04:38:37;;;;;;;56.23;28.63;;;;;;;;;;5058776;28;20183;-64
2022/01/17 04:41:14;;;;;;;52.80;25.10;;;;;;;;;;5059155;28;20182;-64
2022/01/17 04:46:07;;;;;;;53.93;27.57;;;;;;;;;;5059252;28;20187;-66
2022/01/17 04:48:33;;;;;;;51.77;26.57;;;;;;;;;;5057772;28;20647;-63
2022/01/17 04:50:59;;;;;;;52.43;24.13;;;;;;;;;;5059860;28;20298;-64
2022/01/17 04:53:26;;;;;;;44.77;24.90;;;;;;;;;;5058607;28;20247;-63
2022/01/17 04:55:52;;;;;;;51.97;24.67;;;;;;;;;;5057041;28;20187;-64
2022/01/17 04:58:18;;;;;;;43.33;25.00;;;;;;;;;;5057939;28;20200;-64
2022/01/17 05:00:47;;;;;;;47.50;24.13;;;;;;;;;;5059285;28;20181;-67
2022/01/17 05:03:15;;;;;;;45.40;24.07;;;;;;;;;;5062862;28;20198;-69
2022/01/17 05:05:41;;;;;;;51.07;24.30;;;;;;;;;;5061610;28;20569;-64
2022/01/17 05:08:07;;;;;;;50.50;25.40;;;;;;;;;;5063452;28;20186;-64
2022/01/17 05:10:33;;;;;;;52.00;26.03;;;;;;;;;;5063230;28;20196;-64
2022/01/17 05:12:59;;;;;;;50.77;24.00;;;;;;;;;;5061808;28;20201;-68
2022/01/17 05:15:31;;;;;;;45.83;24.60;;;;;;;;;;5061678;28;20182;-64
2022/01/17 05:20:37;;;;;;;49.23;25.27;;;;;;;;;;5063066;28;20171;-65
2022/01/17 05:23:02;;;;;;;42.43;23.30;;;;;;;;;;5062371;28;20178;-64
2022/01/17 05:25:28;;;;;;;44.90;24.47;;;;;;;;;;5062478;28;20205;-64
2022/01/17 05:27:54;;;;;;;43.33;23.50;;;;;;;;;;5062376;28;20198;-64
2022/01/17 05:30:22;;;;;;;41.10;24.43;;;;;;;;;;5060800;28;20225;-63
2022/01/17 05:32:48;;;;;;;46.10;24.10;;;;;;;;;;5062040;28;20186;-63
2022/01/17 05:35:15;;;;;;;43.47;24.93;;;;;;;;;;5061850;28;20221;-64
2022/01/17 05:37:41;;;;;;;44.90;24.87;;;;;;;;;;5061380;28;20178;-64
2022/01/17 05:40:08;;;;;;;46.10;23.77;;;;;;;;;;5060956;28;20181;-65
2022/01/17 05:42:34;;;;;;;42.83;22.77;;;;;;;;;;5061703;28;20638;-65
2022/01/17 05:45:00;;;;;;;45.83;24.37;;;;;;;;;;5058112;28;20205;-64
2022/01/17 05:47:26;;;;;;;41.67;23.53;;;;;;;;;;5058543;28;20646;-64
2022/01/17 05:49:52;;;;;;;42.33;24.20;;;;;;;;;;5062445;28;20183;-64
2022/01/17 05:52:18;;;;;;;46.13;23.23;;;;;;;;;;5061772;28;20636;-64
2022/01/17 05:54:44;;;;;;;37.10;23.47;;;;;;;;;;5061662;28;20199;-64
2022/01/17 05:57:10;;;;;;;43.70;23.57;;;;;;;;;;5060154;28;20183;-64
2022/01/17 05:59:36;;;;;;;40.23;23.30;;;;;;;;;;5061569;28;20178;-63
2022/01/17 06:02:02;;;;;;;48.63;24.40;;;;;;;;;;5061380;28;20244;-64
2022/01/17 06:04:28;;;;;;;37.93;20.70;;;;;;;;;;5059865;28;20577;-69
2022/01/17 06:06:54;;;;;;;44.67;22.63;;;;;;;;;;5061269;28;20179;-64
2022/01/17 06:09:20;;;;;;;40.90;20.73;;;;;;;;;;5059996;28;20232;-64
2022/01/17 06:11:46;;;;;;;39.63;22.27;;;;;;;;;;5061763;28;20194;-64
2022/01/17 06:14:17;;;;;;;37.10;22.13;;;;;;;;;;5060851;28;20198;-64
2022/01/17 06:16:44;;;;;;;47.93;22.07;;;;;;;;;;5061086;28;20219;-64
2022/01/17 06:19:10;;;;;;;37.67;22.27;;;;;;;;;;5061237;28;20265;-64
2022/01/17 06:21:36;;;;;;;37.90;20.30;;;;;;;;;;5060833;28;20615;-64
2022/01/17 06:24:04;;;;;;;39.87;20.77;;;;;;;;;;5061440;28;20634;-68
2022/01/17 06:26:30;;;;;;;37.93;20.80;;;;;;;;;;5059103;28;20228;-64
2022/01/17 06:28:56;;;;;;;46.40;21.50;;;;;;;;;;5056887;28;20611;-64
2022/01/17 06:31:22;;;;;;;35.63;20.07;;;;;;;;;;5055434;28;20229;-65
2022/01/17 06:33:48;;;;;;;37.00;19.30;;;;;;;;;;5055942;28;20276;-71
2022/01/17 06:36:14;;;;;;;36.10;19.50;;;;;;;;;;5057592;28;20171;-65
2022/01/17 06:38:40;;;;;;;36.43;18.67;;;;;;;;;;5057051;28;20175;-67
2022/01/17 06:41:06;;;;;;;33.93;19.17;;;;;;;;;;5057530;28;20186;-65
2022/01/17 06:43:32;;;;;;;29.13;17.77;;;;;;;;;;5056558;28;20198;-66
2022/01/17 06:45:59;;;;;;;35.03;17.90;;;;;;;;;;5056865;28;20228;-65
2022/01/17 06:48:25;;;;;;;44.73;22.43;;;;;;;;;;5055778;28;20194;-65
2022/01/17 06:50:51;;;;;;;38.67;20.37;;;;;;;;;;5055538;28;20281;-66
2022/01/17 06:53:17;;;;;;;55.63;28.27;;;;;;;;;;5056388;28;20654;-66
2022/01/17 06:55:43;;;;;;;38.17;20.40;;;;;;;;;;5057163;28;20198;-66
2022/01/17 06:58:09;;;;;;;36.13;21.53;;;;;;;;;;5056233;28;20179;-65
2022/01/17 07:00:36;;;;;;;34.87;19.00;;;;;;;;;;5056482;28;20178;-66
2022/01/17 07:03:02;;;;;;;84.50;42.63;;;;;;;;;;5056476;28;20175;-65
2022/01/17 07:05:28;;;;;;;46.43;26.73;;;;;;;;;;5056888;28;20604;-65
2022/01/17 07:07:54;;;;;;;41.30;23.57;;;;;;;;;;5055255;28;20175;-66
2022/01/17 07:10:20;;;;;;;41.90;23.43;;;;;;;;;;5056620;28;20182;-65
2022/01/17 07:12:47;;;;;;;41.87;23.00;;;;;;;;;;5056792;28;20647;-65
2022/01/17 07:15:12;;;;;;;48.10;29.57;;;;;;;;;;5055414;28;20179;-65
2022/01/17 07:17:39;;;;;;;52.47;30.20;;;;;;;;;;5054758;28;20182;-66
2022/01/17 07:20:05;;;;;;;67.03;37.07;;;;;;;;;;5056412;28;20541;-65
2022/01/17 07:22:32;;;;;;;39.00;22.90;;;;;;;;;;5056181;28;20627;-66
2022/01/17 07:25:00;;;;;;;31.20;17.60;;;;;;;;;;5054591;28;20275;-68
2022/01/17 07:27:26;;;;;;;36.63;19.83;;;;;;;;;;5054943;28;20654;-65
2022/01/17 07:29:52;;;;;;;30.73;19.60;;;;;;;;;;5054513;28;20186;-66
2022/01/17 07:32:18;;;;;;;35.67;18.93;;;;;;;;;;5054570;28;20206;-65
2022/01/17 07:34:44;;;;;;;28.57;18.07;;;;;;;;;;5055844;28;20190;-65
2022/01/17 07:37:10;;;;;;;39.47;19.00;;;;;;;;;;5056240;28;20544;-65
2022/01/17 07:39:36;;;;;;;30.03;18.63;;;;;;;;;;5055374;28;20579;-65
2022/01/17 07:42:02;;;;;;;34.10;18.23;;;;;;;;;;5056107;28;20201;-65
2022/01/17 07:44:30;;;;;;;34.83;19.30;;;;;;;;;;5056217;28;20212;-66
2022/01/17 07:46:59;;;;;;;36.77;20.20;;;;;;;;;;5054612;28;20218;-65
2022/01/17 07:49:25;;;;;;;34.03;20.30;;;;;;;;;;5054711;28;20182;-64
2022/01/17 07:51:56;;;;;;;29.67;19.73;;;;;;;;;;5059288;28;20205;-65
2022/01/17 07:54:23;;;;;;;35.20;21.43;;;;;;;;;;5056240;28;20191;-65
2022/01/17 07:56:50;;;;;;;37.27;23.13;;;;;;;;;;5056681;28;20178;-65
2022/01/17 07:59:16;;;;;;;37.63;20.00;;;;;;;;;;5055333;28;20646;-65
2022/01/17 08:01:42;;;;;;;41.93;21.47;;;;;;;;;;5055710;28;20179;-65
2022/01/17 08:04:09;;;;;;;36.10;21.67;;;;;;;;;;5056278;28;20209;-65
2022/01/17 08:06:38;;;;;;;35.47;21.77;;;;;;;;;;5056838;28;20277;-64
2022/01/17 08:09:06;;;;;;;34.53;20.47;;;;;;;;;;5055316;28;20269;-64
2022/01/17 08:11:32;;;;;;;38.30;21.17;;;;;;;;;;5054397;28;20615;-65
2022/01/17 08:13:58;;;;;;;35.77;20.67;;;;;;;;;;5054304;28;20231;-66
2022/01/17 08:16:24;;;;;;;30.40;17.77;;;;;;;;;;5054638;28;20182;-64
2022/01/17 08:18:52;;;;;;;33.63;20.97;;;;;;;;;;5056501;28;20182;-65
2022/01/17 08:21:18;;;;;;;37.07;22.93;;;;;;;;;;5055482;28;20754;-64
2022/01/17 08:23:44;;;;;;;35.57;23.03;;;;;;;;;;5055677;28;20249;-64
2022/01/17 08:26:10;;;;;;;39.47;22.97;;;;;;;;;;5054712;28;20269;-68
2022/01/17 08:28:36;;;;;;;41.77;24.23;;;;;;;;;;5056269;28;20658;-64
2022/01/17 08:31:02;;;;;;;35.33;21.27;;;;;;;;;;5055812;28;20203;-63
2022/01/17 08:33:28;;;;;;;41.07;22.53;;;;;;;;;;5054668;28;20280;-66
2022/01/17 08:35:54;;;;;;;39.37;23.13;;;;;;;;;;5054612;28;20182;-65
2022/01/17 08:38:19;;;;;;;37.80;22.23;;;;;;;;;;5058090;28;20180;-64
2022/01/17 08:40:47;;;;;;;38.33;20.93;;;;;;;;;;5060525;28;20631;-65
2022/01/17 08:43:13;;;;;;;35.50;23.03;;;;;;;;;;5059991;28;20565;-63
2022/01/17 08:45:39;;;;;;;30.70;20.00;;;;;;;;;;5058150;28;20193;-64
2022/01/17 08:48:05;;;;;;;30.87;21.90;;;;;;;;;;5060234;28;20186;-64
2022/01/17 08:50:31;;;;;;;30.60;20.13;;;;;;;;;;5059773;28;20185;-65
2022/01/17 08:52:57;;;;;;;31.90;20.00;;;;;;;;;;5058712;28;20178;-65
2022/01/17 08:55:24;;;;;;;37.27;22.27;;;;;;;;;;5058154;28;20181;-65
2022/01/17 08:57:51;;;;;;;33.93;20.50;;;;;;;;;;5058319;28;20181;-66
2022/01/17 09:00:19;;;;;;;33.27;23.03;;;;;;;;;;5057971;28;20167;-65
2022/01/17 09:02:45;;;;;;;32.67;20.20;;;;;;;;;;5058300;28;20175;-64
2022/01/17 09:05:11;;;;;;;38.57;22.03;;;;;;;;;;5058184;28;20230;-65
2022/01/17 09:07:37;;;;;;;35.40;24.17;;;;;;;;;;5058453;28;20182;-64
2022/01/17 09:10:04;;;;;;;40.93;23.77;;;;;;;;;;5056770;28;20189;-65
2022/01/17 09:12:30;;;;;;;35.60;22.20;;;;;;;;;;5056450;28;20622;-65
2022/01/17 09:14:56;;;;;;;38.37;24.50;;;;;;;;;;5058855;28;20241;-64
2022/01/17 09:17:22;;;;;;;38.77;25.10;;;;;;;;;;5058596;28;20186;-64
2022/01/17 09:19:50;;;;;;;41.00;24.70;;;;;;;;;;5058690;28;20178;-64
2022/01/17 09:22:16;;;;;;;31.93;21.63;;;;;;;;;;5058219;28;20186;-65
2022/01/17 09:24:42;;;;;;;39.70;25.83;;;;;;;;;;5059272;28;20238;-64
2022/01/17 09:27:08;;;;;;;38.07;25.47;;;;;;;;;;5060269;28;20214;-65
2022/01/17 09:29:34;;;;;;;42.27;25.93;;;;;;;;;;5058312;28;20186;-65
2022/01/17 09:32:01;;;;;;;35.70;23.17;;;;;;;;;;5059676;28;20201;-65
2022/01/17 09:34:27;;;;;;;40.27;23.80;;;;;;;;;;5058418;28;20202;-66
2022/01/17 09:36:54;;;;;;;39.57;25.77;;;;;;;;;;5058323;28;20185;-66
2022/01/17 09:39:20;;;;;;;33.40;23.20;;;;;;;;;;5058089;28;20587;-65
2022/01/17 09:41:46;;;;;;;38.13;25.73;;;;;;;;;;5059267;28;20643;-65
2022/01/17 09:44:12;;;;;;;40.43;25.20;;;;;;;;;;5057934;28;20206;-64
2022/01/17 09:46:42;;;;;;;36.50;25.27;;;;;;;;;;5059401;28;20193;-65
2022/01/17 09:49:24;;;;;;;41.57;25.70;;;;;;;;;;5059038;28;20186;-64
2022/01/17 09:52:37;;;;;;;40.20;25.27;;;;;;;;;;5057175;28;20194;-64
2022/01/17 09:54:39;;;;;;;37.83;24.97;;;;;;;;;;5054840;28;20578;-65
2022/01/17 09:57:06;;;;;;;36.33;23.93;;;;;;;;;;5057205;28;20183;-64
2022/01/17 09:59:33;;;;;;;39.83;24.20;;;;;;;;;;5058738;28;20214;-65
2022/01/17 10:01:59;;;;;;;33.37;22.57;;;;;;;;;;5058998;28;20185;-65
2022/01/17 10:04:25;;;;;;;32.90;22.23;;;;;;;;;;5057336;28;20285;-66
2022/01/17 10:06:55;;;;;;;38.43;22.80;;;;;;;;;;5058789;28;20261;-65
2022/01/17 10:09:25;;;;;;;32.57;22.57;;;;;;;;;;5057943;28;20179;-65
2022/01/17 10:12:06;;;;;;;46.73;24.03;;;;;;;;;;5058468;28;20198;-64
2022/01/17 10:14:36;;;;;;;31.50;23.03;;;;;;;;;;5057056;28;20284;-64
2022/01/17 10:17:16;;;;;;;33.67;20.00;;;;;;;;;;5058039;28;20176;-64
2022/01/17 10:19:43;;;;;;;36.40;22.93;;;;;;;;;;5055893;28;20269;-66
2022/01/17 10:22:18;;;;;;;32.23;19.60;;;;;;;;;;5055915;28;20697;-66
2022/01/17 10:27:22;;;;;;;29.43;20.80;;;;;;;;;;5062341;22;20277;-62
2022/01/17 10:35:27;;;;;;;40.37;21.90;;;;;;;;;;5036613;28;20217;-62
2022/01/17 10:38:00;;;;;;;46.60;27.53;;;;;;;;;;5036879;28;20613;-64
2022/01/17 10:40:47;;;;;;;33.37;20.80;;;;;;;;;;5036607;28;20210;-62
2022/01/17 10:43:20;;;;;;;37.30;22.30;;;;;;;;;;5025642;28;20195;-62
2022/01/17 10:45:46;;;;;;;32.73;20.30;;;;;;;;;;5035670;28;20252;-63
2022/01/17 10:48:12;;;;;;;29.93;21.00;;;;;;;;;;5034330;28;20659;-63
2022/01/17 10:50:43;;;;;;;42.57;21.57;;;;;;;;;;5035813;28;20190;-62
2022/01/17 10:53:11;;;;;;;53.53;36.77;;;;;;;;;;5035667;28;20631;-63
2022/01/17 10:55:44;;;;;;;34.30;20.67;;;;;;;;;;5033559;28;20206;-63
2022/01/17 10:58:11;;;;;;;34.43;20.40;;;;;;;;;;5035131;28;20655;-61
2022/01/17 11:00:38;;;;;;;35.87;21.27;;;;;;;;;;5034675;28;20565;-63
2022/01/17 11:03:08;;;;;;;37.10;21.93;;;;;;;;;;5034742;28;20171;-63
2022/01/17 11:05:36;;;;;;;35.07;21.20;;;;;;;;;;5033540;28;20576;-62
2022/01/17 11:08:02;;;;;;;25.80;18.73;;;;;;;;;;5034980;28;20172;-63
2022/01/17 11:10:29;;;;;;;38.37;19.67;;;;;;;;;;5035303;28;20262;-63
2022/01/17 11:12:56;;;;;;;34.03;20.07;;;;;;;;;;5034789;28;20210;-63
2022/01/17 11:15:23;;;;;;;31.40;19.53;;;;;;;;;;5033491;28;20217;-62
2022/01/17 11:17:56;;;;;;;30.30;19.60;;;;;;;;;;5034770;28;20686;-62
2022/01/17 11:20:24;;;;;;;36.63;20.57;;;;;;;;;;5034967;28;20567;-63
2022/01/17 11:22:51;;;;;;;36.90;21.60;;;;;;;;;;5034951;28;20175;-62
2022/01/17 11:25:20;;;;;;;31.93;19.83;;;;;;;;;;5034898;28;20266;-62
2022/01/17 11:27:46;;;;;;;36.50;20.10;;;;;;;;;;5034664;28;20195;-62
2022/01/17 11:30:12;;;;;;;34.67;19.80;;;;;;;;;;5034482;28;20180;-63
2022/01/17 11:32:39;;;;;;;32.60;20.13;;;;;;;;;;5034257;28;20209;-63
2022/01/17 11:35:06;;;;;;;30.20;18.87;;;;;;;;;;5034851;28;20585;-62
2022/01/17 11:37:33;;;;;;;38.20;19.93;;;;;;;;;;5034398;28;20197;-63
2022/01/17 11:39:59;;;;;;;31.07;19.77;;;;;;;;;;5032866;28;20179;-62
2022/01/17 11:42:35;;;;;;;33.70;20.13;;;;;;;;;;5032942;28;20187;-62
2022/01/17 11:45:01;;;;;;;35.43;15.83;;;;;;;;;;5032764;28;20618;-62
2022/01/17 11:47:47;;;;;;;34.17;17.97;;;;;;;;;;5035041;28;20266;-63
2022/01/17 11:50:32;;;;;;;29.87;16.87;;;;;;;;;;5035272;28;20198;-63
2022/01/17 11:53:03;;;;;;;32.70;18.00;;;;;;;;;;5037222;28;20223;-63
2022/01/17 11:55:42;;;;;;;30.90;17.53;;;;;;;;;;5034310;28;20174;-62
2022/01/17 11:58:27;;;;;;;33.63;17.70;;;;;;;;;;5034139;28;20209;-62
2022/01/17 12:01:00;;;;;;;31.07;17.70;;;;;;;;;;5034198;28;20183;-60
2022/01/17 12:03:27;;;;;;;31.67;18.00;;;;;;;;;;5033399;28;20247;-63
2022/01/17 12:05:57;;;;;;;28.80;17.23;;;;;;;;;;5033960;28;20207;-63
2022/01/17 12:08:25;;;;;;;39.97;19.37;;;;;;;;;;5032768;28;20205;-61
2022/01/17 12:10:52;;;;;;;34.40;18.27;;;;;;;;;;5031963;28;20190;-63
2022/01/17 12:13:20;;;;;;;33.00;18.23;;;;;;;;;;5034242;28;20540;-62
2022/01/17 12:15:58;;;;;;;34.57;17.00;;;;;;;;;;5033822;28;20191;-63
2022/01/17 12:18:30;;;;;;;35.33;19.03;;;;;;;;;;5033944;28;20229;-61
2022/01/17 12:20:56;;;;;;;29.10;16.10;;;;;;;;;;5034339;28;20202;-62
2022/01/17 12:23:24;;;;;;;36.23;17.53;;;;;;;;;;5032556;28;20190;-62
2022/01/17 12:25:50;;;;;;;33.30;18.63;;;;;;;;;;5033788;28;20207;-62
2022/01/17 12:28:19;;;;;;;32.90;17.77;;;;;;;;;;5032752;28;20168;-61
2022/01/17 12:30:47;;;;;;;32.27;14.93;;;;;;;;;;5032631;28;20179;-62
2022/01/17 12:33:13;;;;;;;32.33;15.00;;;;;;;;;;5033984;28;20198;-62
2022/01/17 12:35:46;;;;;;;29.13;16.03;;;;;;;;;;5033717;28;20198;-61
2022/01/17 12:38:15;;;;;;;33.47;15.40;;;;;;;;;;5033972;28;20574;-62
2022/01/17 12:40:42;;;;;;;31.17;15.27;;;;;;;;;;5032612;28;20182;-61
2022/01/17 12:43:12;;;;;;;27.40;14.47;;;;;;;;;;5035769;28;20175;-62
2022/01/17 12:45:40;;;;;;;26.60;14.27;;;;;;;;;;5036304;28;20202;-63
2022/01/17 12:48:12;;;;;;;32.47;17.07;;;;;;;;;;5035561;28;20657;-62
2022/01/17 12:50:40;;;;;;;30.40;17.57;;;;;;;;;;5032272;28;20321;-63
2022/01/17 12:53:07;;;;;;;28.40;16.37;;;;;;;;;;5033683;28;20175;-61
2022/01/17 12:55:43;;;;;;;25.10;15.67;;;;;;;;;;5033427;28;20168;-62
2022/01/17 12:58:12;;;;;;;33.37;13.90;;;;;;;;;;5033646;28;20195;-62
2022/01/17 13:00:38;;;;;;;28.93;14.70;;;;;;;;;;5032135;28;20175;-62
2022/01/17 13:03:05;;;;;;;24.73;13.90;;;;;;;;;;5033571;28;20682;-63
2022/01/17 13:05:31;;;;;;;29.87;12.10;;;;;;;;;;5033314;28;20176;-61
2022/01/17 13:08:01;;;;;;;22.10;12.90;;;;;;;;;;5032049;28;20601;-62
2022/01/17 13:10:27;;;;;;;34.97;14.37;;;;;;;;;;5033508;28;20647;-63
2022/01/17 13:12:55;;;;;;;25.37;13.23;;;;;;;;;;5033788;28;20645;-62
2022/01/17 13:15:21;;;;;;;30.57;13.53;;;;;;;;;;5033794;28;20190;-61
2022/01/17 13:17:50;;;;;;;34.13;13.23;;;;;;;;;;5033621;28;20645;-62
2022/01/17 13:20:16;;;;;;;27.70;11.90;;;;;;;;;;5033427;28;20647;-61
2022/01/17 13:22:53;;;;;;;24.97;11.67;;;;;;;;;;5034448;28;20254;-62
2022/01/17 13:25:20;;;;;;;29.40;12.73;;;;;;;;;;5038330;28;20159;-63
2022/01/17 13:27:46;;;;;;;31.27;13.33;;;;;;;;;;5037061;28;20258;-62
2022/01/17 13:30:13;;;;;;;28.57;12.07;;;;;;;;;;5035688;28;20183;-63
2022/01/17 13:32:42;;;;;;;31.20;12.57;;;;;;;;;;5036801;28;20210;-63
2022/01/17 13:35:13;;;;;;;34.17;13.27;;;;;;;;;;5036580;28;20547;-63
2022/01/17 13:37:42;;;;;;;29.53;10.80;;;;;;;;;;5036751;28;20274;-63
2022/01/17 13:40:18;;;;;;;31.73;10.90;;;;;;;;;;5036591;28;20179;-63
2022/01/17 13:43:05;;;;;;;29.60;11.57;;;;;;;;;;5036687;28;20633;-63
2022/01/17 13:45:31;;;;;;;29.87;9.50;;;;;;;;;;5035509;28;20193;-62
2022/01/17 13:47:57;;;;;;;30.13;11.20;;;;;;;;;;5037162;28;20262;-63
2022/01/17 13:50:23;;;;;;;34.30;10.27;;;;;;;;;;5036061;28;20184;-62
2022/01/17 13:52:51;;;;;;;26.40;9.60;;;;;;;;;;5037806;28;20205;-64
2022/01/17 13:55:38;;;;;;;28.00;10.90;;;;;;;;;;5037451;28;20168;-62
2022/01/17 13:58:05;;;;;;;25.63;9.77;;;;;;;;;;5037731;28;20183;-63
2022/01/17 14:00:33;;;;;;;26.20;9.70;;;;;;;;;;5038637;28;20221;-63
2022/01/17 14:03:04;;;;;;;24.80;8.67;;;;;;;;;;5035021;28;20183;-63
2022/01/17 14:05:32;;;;;;;26.43;9.13;;;;;;;;;;5036059;28;20193;-62
2022/01/17 14:08:17;;;;;;;20.00;8.47;;;;;;;;;;5036060;28;20184;-62
2022/01/17 14:10:50;;;;;;;25.37;8.63;;;;;;;;;;5036352;28;20584;-62
2022/01/17 14:13:20;;;;;;;23.50;11.13;;;;;;;;;;5036717;28;20183;-62
2022/01/17 14:15:46;;;;;;;27.33;10.07;;;;;;;;;;5036127;28;20244;-61
2022/01/17 14:18:14;;;;;;;25.13;8.13;;;;;;;;;;5036925;28;20202;-62
2022/01/17 14:20:42;;;;;;;28.20;9.10;;;;;;;;;;5036557;28;20171;-62
2022/01/17 14:23:10;;;;;;;22.90;8.47;;;;;;;;;;5035963;28;20690;-61
2022/01/17 14:25:39;;;;;;;26.80;8.53;;;;;;;;;;5034619;28;20205;-62
2022/01/17 14:28:06;;;;;;;22.77;7.97;;;;;;;;;;5034895;28;20552;-62
2022/01/17 14:30:34;;;;;;;19.63;7.43;;;;;;;;;;5035947;28;20176;-61
2022/01/17 14:33:15;;;;;;;30.73;8.70;;;;;;;;;;5034852;28;20231;-63
2022/01/17 14:36:00;;;;;;;24.47;7.87;;;;;;;;;;5033830;28;20206;-63
2022/01/17 14:38:26;;;;;;;26.40;7.40;;;;;;;;;;5037371;28;20159;-62
2022/01/17 14:40:52;;;;;;;18.03;6.40;;;;;;;;;;5035802;28;20180;-64
2022/01/17 14:43:19;;;;;;;30.50;7.53;;;;;;;;;;5038222;28;20186;-63